createdAt,value
2018-05-14T00:01:27.190Z,13.90
2018-05-14T00:03:55.663Z,14.06
2018-05-14T00:06:24.075Z,14.10
2018-05-14T00:08:52.543Z,14.08
2018-05-14T00:11:20.935Z,13.77
2018-05-14T00:13:49.347Z,14.03
2018-05-14T00:16:17.827Z,14.08
2018-05-14T00:18:46.246Z,14.15
2018-05-14T00:21:14.682Z,14.01
2018-05-14T00:23:43.150Z,14.18
2018-05-14T00:26:11.657Z,14.23
2018-05-14T00:28:40.184Z,14.18
2018-05-14T00:31:08.604Z,14.25
2018-05-14T00:33:37.046Z,14.17
2018-05-14T00:36:05.552Z,14.07
2018-05-14T00:38:33.968Z,13.98
2018-05-14T00:41:02.417Z,14.11
2018-05-14T00:43:30.854Z,14.06
2018-05-14T00:45:59.271Z,14.08
2018-05-14T00:48:27.729Z,14.19
2018-05-14T00:50:56.183Z,14.28
2018-05-14T00:53:24.647Z,14.27
2018-05-14T00:55:53.107Z,14.31
2018-05-14T00:58:21.504Z,14.12
2018-05-14T01:00:50.040Z,14.13
2018-05-14T01:03:18.447Z,14.24
2018-05-14T01:05:46.924Z,14.02
2018-05-14T01:08:15.353Z,14.24
2018-05-14T01:10:43.850Z,14.36
2018-05-14T01:13:12.307Z,14.39
2018-05-14T01:15:40.788Z,14.29
2018-05-14T01:18:09.224Z,14.13
2018-05-14T01:20:37.659Z,14.24
2018-05-14T01:23:06.057Z,14.34
2018-05-14T01:25:34.498Z,13.95
2018-05-14T01:28:02.992Z,13.89
2018-05-14T01:30:31.465Z,14.03
2018-05-14T01:32:59.865Z,14.27
2018-05-14T01:35:28.541Z,14.34
2018-05-14T01:37:56.933Z,13.97
2018-05-14T01:40:25.381Z,13.72
2018-05-14T01:42:53.769Z,14.19
2018-05-14T01:45:22.228Z,14.28
2018-05-14T01:47:50.632Z,14.07
2018-05-14T01:50:19.092Z,14.02
2018-05-14T01:52:47.492Z,14.31
2018-05-14T01:55:15.966Z,14.37
2018-05-14T01:57:44.378Z,14.42
2018-05-14T02:00:12.822Z,14.46
2018-05-14T02:02:41.240Z,14.37
2018-05-14T02:05:09.684Z,14.08
2018-05-14T02:07:38.092Z,14.05
2018-05-14T02:10:06.515Z,14.16
2018-05-14T02:12:34.951Z,13.62
2018-05-14T02:15:03.513Z,14.45
2018-05-14T02:17:31.957Z,14.38
2018-05-14T02:20:00.367Z,14.21
2018-05-14T02:22:28.855Z,14.40
2018-05-14T02:24:57.260Z,14.41
2018-05-14T02:27:25.704Z,14.43
2018-05-14T02:29:54.165Z,14.42
2018-05-14T02:32:22.600Z,14.42
2018-05-14T02:34:51.051Z,14.39
2018-05-14T02:37:19.494Z,14.26
2018-05-14T02:39:47.909Z,14.31
2018-05-14T02:42:16.364Z,14.28
2018-05-14T02:44:44.788Z,14.09
2018-05-14T02:47:13.225Z,14.26
2018-05-14T02:49:41.652Z,14.19
2018-05-14T02:52:10.108Z,13.83
2018-05-14T02:54:38.576Z,14.14
2018-05-14T02:57:07.008Z,14.12
2018-05-14T02:59:35.466Z,14.14
2018-05-14T03:02:03.928Z,14.27
2018-05-14T03:04:32.340Z,14.33
2018-05-14T03:07:00.747Z,14.36
2018-05-14T03:09:29.157Z,14.34
2018-05-14T03:11:57.704Z,14.40
2018-05-14T03:14:26.145Z,14.47
2018-05-14T03:16:54.595Z,14.21
2018-05-14T03:19:23.028Z,14.42
2018-05-14T03:21:51.436Z,14.46
2018-05-14T03:24:19.873Z,14.22
2018-05-14T03:26:48.322Z,14.35
2018-05-14T03:29:16.750Z,14.56
2018-05-14T03:31:45.197Z,14.51
2018-05-14T03:34:13.715Z,14.40
2018-05-14T03:36:42.115Z,14.55
2018-05-14T03:39:10.534Z,14.35
2018-05-14T03:41:39.010Z,14.57
2018-05-14T03:44:07.450Z,14.77
2018-05-14T03:46:35.919Z,14.76
2018-05-14T03:49:04.339Z,14.95
2018-05-14T03:51:32.827Z,15.06
2018-05-14T03:54:01.257Z,14.98
2018-05-14T03:56:29.651Z,14.48
2018-05-14T03:59:10.209Z,14.68
2018-05-14T04:01:50.375Z,14.83
2018-05-14T04:04:30.623Z,15.01
2018-05-14T04:06:59.066Z,15.11
2018-05-14T04:09:27.540Z,15.09
2018-05-14T04:11:56.894Z,15.17
2018-05-14T04:14:25.423Z,15.33
2018-05-14T04:16:53.857Z,15.47
2018-05-14T04:19:22.267Z,15.45
2018-05-14T04:21:50.759Z,15.55
2018-05-14T04:24:19.226Z,15.66
2018-05-14T04:26:47.640Z,15.74
2018-05-14T04:29:16.078Z,15.79
2018-05-14T04:31:44.564Z,15.74
2018-05-14T04:34:13.022Z,15.93
2018-05-14T04:36:41.495Z,15.92
2018-05-14T04:39:09.982Z,15.75
2018-05-14T04:41:38.523Z,16.21
2018-05-14T04:44:06.979Z,16.35
2018-05-14T04:46:35.383Z,15.79
2018-05-14T04:49:03.840Z,15.53
2018-05-14T04:51:32.297Z,15.55
2018-05-14T04:54:00.800Z,15.75
2018-05-14T04:56:29.248Z,15.82
2018-05-14T04:58:57.666Z,15.94
2018-05-14T05:01:26.135Z,15.62
2018-05-14T05:03:54.611Z,15.65
2018-05-14T05:06:23.149Z,15.92
2018-05-14T05:08:51.615Z,15.88
2018-05-14T05:11:20.008Z,15.36
2018-05-14T05:13:48.726Z,15.26
2018-05-14T05:16:17.173Z,15.53
2018-05-14T05:18:45.639Z,15.55
2018-05-14T05:21:14.153Z,15.64
2018-05-14T05:23:42.571Z,15.28
2018-05-14T05:26:11.040Z,15.59
2018-05-14T05:28:39.511Z,15.79
2018-05-14T05:31:07.953Z,16.16
2018-05-14T05:33:36.367Z,16.27
2018-05-14T05:36:04.836Z,16.66
2018-05-14T05:38:33.290Z,16.95
2018-05-14T05:41:01.716Z,16.90
2018-05-14T05:43:30.220Z,16.87
2018-05-14T05:45:58.776Z,16.94
2018-05-14T05:48:27.201Z,17.00
2018-05-14T05:50:55.608Z,16.86
2018-05-14T05:53:24.072Z,16.88
2018-05-14T05:55:52.528Z,16.97
2018-05-14T05:58:21.007Z,16.84
2018-05-14T06:00:49.659Z,17.13
2018-05-14T06:03:18.059Z,17.10
2018-05-14T06:05:46.452Z,17.34
2018-05-14T06:08:14.924Z,17.84
2018-05-14T06:10:43.328Z,18.05
2018-05-14T06:13:11.796Z,18.05
2018-05-14T06:15:40.227Z,17.98
2018-05-14T06:18:08.634Z,18.12
2018-05-14T06:20:37.089Z,18.21
2018-05-14T06:23:05.602Z,18.38
2018-05-14T06:25:34.038Z,18.48
2018-05-14T06:28:02.516Z,18.66
2018-05-14T06:30:30.940Z,18.85
2018-05-14T06:32:59.389Z,19.08
2018-05-14T06:35:27.829Z,18.52
2018-05-14T06:37:56.697Z,18.51
2018-05-14T06:40:24.950Z,18.60
2018-05-14T06:42:53.403Z,18.20
2018-05-14T06:45:21.823Z,18.62
2018-05-14T06:47:50.305Z,18.73
2018-05-14T06:50:18.827Z,18.79
2018-05-14T06:52:47.308Z,18.88
2018-05-14T06:55:15.797Z,19.00
2018-05-14T06:57:44.278Z,18.73
2018-05-14T07:00:12.727Z,18.81
2018-05-14T07:02:41.208Z,19.19
2018-05-14T07:05:09.612Z,19.46
2018-05-14T07:07:38.071Z,19.70
2018-05-14T07:10:06.443Z,19.99
2018-05-14T07:12:34.903Z,19.75
2018-05-14T07:15:03.366Z,19.40
2018-05-14T07:17:31.849Z,19.70
2018-05-14T07:20:00.303Z,19.53
2018-05-14T07:22:28.703Z,20.14
2018-05-14T07:24:57.143Z,20.14
2018-05-14T07:27:25.558Z,19.86
2018-05-14T07:29:54.029Z,20.06
2018-05-14T07:32:22.449Z,20.42
2018-05-14T07:34:50.920Z,20.62
2018-05-14T07:37:19.350Z,20.24
2018-05-14T07:39:48.159Z,20.06
2018-05-14T07:42:16.621Z,20.66
2018-05-14T07:44:45.123Z,21.28
2018-05-14T07:47:13.585Z,21.56
2018-05-14T07:49:42.025Z,21.86
2018-05-14T07:52:10.478Z,22.71
2018-05-14T07:54:38.936Z,22.88
2018-05-14T07:57:07.415Z,21.90
2018-05-14T07:59:35.818Z,21.79
2018-05-14T08:02:04.293Z,21.42
2018-05-14T08:04:32.759Z,20.84
2018-05-14T08:07:01.226Z,20.58
2018-05-14T08:09:29.680Z,19.86
2018-05-14T08:11:58.267Z,19.66
2018-05-14T08:14:26.708Z,20.44
2018-05-14T08:16:55.174Z,21.30
2018-05-14T08:19:23.639Z,22.11
2018-05-14T08:21:52.081Z,22.82
2018-05-14T08:24:20.523Z,22.29
2018-05-14T08:26:48.987Z,22.30
2018-05-14T08:29:17.524Z,22.15
2018-05-14T08:31:45.967Z,22.54
2018-05-14T08:34:14.472Z,22.99
2018-05-14T08:36:43.319Z,22.96
2018-05-14T08:39:11.706Z,22.93
2018-05-14T08:41:40.123Z,23.56
2018-05-14T08:44:08.859Z,22.66
2018-05-14T08:46:37.263Z,22.72
2018-05-14T08:49:05.665Z,22.58
2018-05-14T08:51:34.516Z,22.63
2018-05-14T08:54:02.967Z,22.95
2018-05-14T08:56:31.422Z,23.16
2018-05-14T08:58:59.863Z,23.31
2018-05-14T09:01:29.170Z,23.18
2018-05-14T09:03:57.551Z,23.31
2018-05-14T09:06:27.142Z,23.40
2018-05-14T09:08:55.532Z,22.98
2018-05-14T09:11:23.920Z,21.94
2018-05-14T09:13:52.682Z,22.32
2018-05-14T09:16:21.095Z,21.91
2018-05-14T09:18:49.475Z,21.87
2018-05-14T09:21:18.254Z,22.71
2018-05-14T09:23:46.633Z,23.05
2018-05-14T09:26:15.016Z,23.20
2018-05-14T09:28:44.074Z,23.83
2018-05-14T09:31:12.923Z,24.45
2018-05-14T09:33:41.732Z,24.78
2018-05-14T09:36:10.551Z,23.85
2018-05-14T09:38:38.929Z,23.25
2018-05-14T09:41:07.344Z,23.46
2018-05-14T09:43:36.000Z,24.12
2018-05-14T09:46:04.418Z,24.07
2018-05-14T09:48:32.842Z,24.14
2018-05-14T09:51:01.651Z,23.75
2018-05-14T09:53:30.077Z,24.27
2018-05-14T09:55:58.451Z,23.91
2018-05-14T09:58:27.234Z,23.58
2018-05-14T10:00:55.631Z,23.33
2018-05-14T10:03:24.019Z,23.66
2018-05-14T10:05:52.812Z,23.60
2018-05-14T10:08:21.198Z,24.43
2018-05-14T10:10:49.619Z,24.61
2018-05-14T10:13:18.403Z,25.12
2018-05-14T10:15:46.795Z,25.13
2018-05-14T10:18:15.191Z,24.85
2018-05-14T10:20:43.755Z,23.94
2018-05-14T10:23:12.158Z,22.05
2018-05-14T10:25:40.547Z,21.35
2018-05-14T10:28:09.291Z,21.40
2018-05-14T10:30:37.688Z,20.93
2018-05-14T10:33:06.080Z,20.23
2018-05-14T10:35:34.940Z,20.60
2018-05-14T10:38:03.340Z,20.57
2018-05-14T10:40:31.744Z,20.46
2018-05-14T10:43:00.495Z,20.36
2018-05-14T10:45:28.906Z,20.48
2018-05-14T10:47:57.357Z,20.54
2018-05-14T10:50:26.162Z,20.07
2018-05-14T10:52:54.644Z,20.39
2018-05-14T10:55:23.034Z,20.59
2018-05-14T10:57:51.803Z,20.88
2018-05-14T11:00:20.215Z,20.87
2018-05-14T11:02:48.603Z,20.79
2018-05-14T11:05:17.342Z,20.69
2018-05-14T11:07:45.739Z,21.04
2018-05-14T11:10:14.267Z,20.82
2018-05-14T11:12:43.113Z,20.76
2018-05-14T11:15:11.530Z,20.63
2018-05-14T11:17:39.955Z,20.39
2018-05-14T11:20:08.647Z,19.62
2018-05-14T11:22:37.059Z,19.00
2018-05-14T11:25:05.574Z,18.96
2018-05-14T11:27:34.491Z,18.53
2018-05-14T11:30:02.847Z,17.62
2018-05-14T11:32:31.280Z,16.89
2018-05-14T11:34:59.909Z,16.40
2018-05-14T11:37:28.300Z,16.36
2018-05-14T11:39:56.721Z,16.48
2018-05-14T11:42:25.404Z,16.58
2018-05-14T11:44:53.795Z,16.80
2018-05-14T11:47:22.198Z,17.55
2018-05-14T11:49:51.044Z,19.02
2018-05-14T11:52:19.448Z,20.62
2018-05-14T11:54:47.968Z,20.74
2018-05-14T11:57:16.719Z,20.49
2018-05-14T11:59:45.139Z,19.97
2018-05-14T12:02:13.519Z,20.40
2018-05-14T12:04:42.148Z,21.11
2018-05-14T12:07:10.544Z,22.26
2018-05-14T12:09:39.017Z,23.29
2018-05-14T12:12:07.497Z,24.36
2018-05-14T12:14:35.880Z,24.36
2018-05-14T12:17:04.276Z,24.70
2018-05-14T12:19:33.017Z,25.38
2018-05-14T12:22:01.436Z,26.56
2018-05-14T12:24:29.853Z,27.76
2018-05-14T12:26:58.475Z,28.56
2018-05-14T12:29:26.905Z,29.12
2018-05-14T12:31:55.319Z,29.64
2018-05-14T12:34:23.744Z,30.40
2018-05-14T12:36:52.127Z,30.79
2018-05-14T12:39:20.523Z,31.46
2018-05-14T12:41:49.231Z,31.26
2018-05-14T12:44:17.636Z,31.20
2018-05-14T12:46:46.064Z,30.77
2018-05-14T12:49:14.844Z,27.31
2018-05-14T12:51:43.328Z,27.61
2018-05-14T12:54:11.721Z,27.28
2018-05-14T12:56:40.227Z,26.60
2018-05-14T12:59:08.624Z,26.53
2018-05-14T13:01:37.039Z,25.49
2018-05-14T13:04:05.815Z,25.34
2018-05-14T13:06:34.199Z,25.89
2018-05-14T13:09:02.601Z,25.59
2018-05-14T13:11:31.127Z,25.18
2018-05-14T13:13:59.546Z,25.01
2018-05-14T13:16:28.653Z,24.98
2018-05-14T13:18:57.823Z,24.94
2018-05-14T13:21:26.676Z,25.29
2018-05-14T13:23:55.144Z,26.08
2018-05-14T13:26:23.681Z,28.34
2018-05-14T13:28:52.201Z,28.04
2018-05-14T13:31:20.670Z,27.94
2018-05-14T13:33:49.331Z,27.45
2018-05-14T13:36:17.737Z,26.41
2018-05-14T13:38:46.151Z,25.90
2018-05-14T13:41:14.939Z,26.44
2018-05-14T13:43:43.344Z,27.51
2018-05-14T13:46:11.758Z,26.97
2018-05-14T13:48:40.431Z,27.52
2018-05-14T13:51:08.967Z,27.02
2018-05-14T13:53:37.383Z,26.73
2018-05-14T13:56:05.854Z,27.88
2018-05-14T13:58:34.304Z,28.24
2018-05-14T14:01:02.722Z,27.93
2018-05-14T14:03:31.526Z,27.00
2018-05-14T14:05:59.914Z,26.12
2018-05-14T14:08:28.289Z,25.90
2018-05-14T14:10:57.086Z,26.12
2018-05-14T14:13:25.524Z,25.87
2018-05-14T14:15:53.959Z,24.99
2018-05-14T14:18:22.396Z,24.63
2018-05-14T14:20:50.784Z,24.21
2018-05-14T14:23:19.299Z,23.98
2018-05-14T14:25:47.979Z,23.47
2018-05-14T14:28:16.383Z,23.52
2018-05-14T14:30:45.612Z,23.29
2018-05-14T14:33:14.251Z,22.85
2018-05-14T14:35:42.654Z,23.14
2018-05-14T14:38:11.060Z,22.78
2018-05-14T14:40:39.816Z,22.76
2018-05-14T14:43:08.287Z,22.65
2018-05-14T14:45:36.705Z,22.72
2018-05-14T14:48:05.461Z,22.67
2018-05-14T14:50:33.853Z,22.67
2018-05-14T14:53:02.328Z,22.34
2018-05-14T14:55:30.979Z,22.13
2018-05-14T14:57:59.374Z,22.21
2018-05-14T15:00:27.761Z,22.50
2018-05-14T15:02:56.196Z,22.43
2018-05-14T15:05:24.689Z,22.82
2018-05-14T15:07:53.075Z,22.95
2018-05-14T15:10:21.679Z,23.00
2018-05-14T15:12:50.078Z,22.86
2018-05-14T15:15:18.460Z,22.64
2018-05-14T15:17:47.124Z,22.59
2018-05-14T15:20:15.623Z,22.90
2018-05-14T15:22:44.032Z,22.91
2018-05-14T15:25:12.664Z,22.77
2018-05-14T15:27:41.112Z,22.45
2018-05-14T15:30:09.562Z,22.78
2018-05-14T15:32:38.208Z,22.87
2018-05-14T15:35:06.595Z,22.49
2018-05-14T15:37:34.996Z,21.99
2018-05-14T15:40:03.780Z,21.74
2018-05-14T15:42:32.312Z,21.83
2018-05-14T15:45:00.736Z,21.84
2018-05-14T15:47:29.194Z,21.76
2018-05-14T15:49:57.813Z,21.54
2018-05-14T15:52:26.226Z,21.59
2018-05-14T15:54:54.981Z,21.60
2018-05-14T15:57:23.366Z,21.76
2018-05-14T15:59:51.769Z,21.94
2018-05-14T16:02:20.515Z,21.93
2018-05-14T16:04:48.936Z,21.62
2018-05-14T16:07:17.389Z,21.54
2018-05-14T16:09:45.900Z,21.71
2018-05-14T16:12:14.292Z,21.60
2018-05-14T16:14:42.750Z,21.53
2018-05-14T16:17:11.512Z,21.22
2018-05-14T16:19:39.920Z,21.25
2018-05-14T16:22:08.323Z,21.33
2018-05-14T16:24:36.955Z,20.81
2018-05-14T16:27:05.347Z,21.02
2018-05-14T16:29:33.775Z,21.14
2018-05-14T16:32:02.427Z,21.14
2018-05-14T16:34:30.831Z,20.84
2018-05-14T16:36:59.247Z,20.83
2018-05-14T16:39:28.152Z,20.71
2018-05-14T16:41:56.694Z,20.43
2018-05-14T16:44:25.058Z,20.66
2018-05-14T16:46:53.577Z,20.50
2018-05-14T16:49:22.010Z,20.56
2018-05-14T16:51:50.415Z,20.49
2018-05-14T16:54:19.206Z,20.44
2018-05-14T16:56:47.633Z,20.22
2018-05-14T16:59:16.117Z,20.08
2018-05-14T17:01:45.131Z,19.65
2018-05-14T17:04:13.656Z,19.63
2018-05-14T17:06:42.024Z,19.66
2018-05-14T17:09:10.859Z,19.13
2018-05-14T17:11:39.312Z,19.10
2018-05-14T17:14:07.820Z,18.43
2018-05-14T17:16:36.608Z,18.28
2018-05-14T17:19:05.008Z,18.00
2018-05-14T17:21:33.446Z,17.75
2018-05-14T17:24:01.886Z,17.61
2018-05-14T17:26:30.392Z,17.65
2018-05-14T17:28:58.747Z,17.71
2018-05-14T17:31:27.403Z,17.62
2018-05-14T17:33:55.788Z,17.77
2018-05-14T17:36:24.242Z,17.89
2018-05-14T17:38:52.965Z,17.57
2018-05-14T17:41:21.403Z,17.57
2018-05-14T17:43:49.800Z,17.59
2018-05-14T17:46:18.570Z,17.60
2018-05-14T17:48:47.025Z,17.67
2018-05-14T17:51:15.445Z,17.68
2018-05-14T17:53:43.889Z,17.60
2018-05-14T17:56:12.296Z,17.56
2018-05-14T17:58:40.711Z,17.57
2018-05-14T18:01:09.470Z,17.48
2018-05-14T18:03:37.903Z,17.38
2018-05-14T18:06:06.314Z,17.25
2018-05-14T18:08:35.147Z,17.28
2018-05-14T18:11:03.610Z,17.41
2018-05-14T18:13:32.020Z,17.53
2018-05-14T18:16:00.868Z,17.41
2018-05-14T18:18:29.284Z,17.24
2018-05-14T18:21:00.516Z,17.35
2018-05-14T18:23:29.332Z,17.49
2018-05-14T18:26:18.439Z,17.46
2018-05-14T18:28:49.951Z,17.48
2018-05-14T18:31:24.030Z,17.57
2018-05-14T18:33:54.415Z,17.56
2018-05-14T18:36:22.833Z,17.52
2018-05-14T18:38:51.253Z,17.69
2018-05-14T18:41:20.336Z,17.72
2018-05-14T18:43:48.729Z,17.80
2018-05-14T18:46:17.125Z,17.75
2018-05-14T18:48:45.915Z,17.69
2018-05-14T18:51:14.374Z,17.62
2018-05-14T18:53:42.782Z,17.64
2018-05-14T18:56:11.527Z,17.77
2018-05-14T18:58:39.928Z,17.32
2018-05-14T19:01:08.452Z,17.62
2018-05-14T19:03:37.294Z,17.38
2018-05-14T19:06:05.727Z,17.25
2018-05-14T19:08:34.126Z,17.58
2018-05-14T19:11:08.358Z,17.47
2018-05-14T19:13:36.751Z,17.15
2018-05-14T19:16:10.819Z,16.89
2018-05-14T19:18:39.319Z,16.84
2018-05-14T19:21:07.706Z,17.10
2018-05-14T19:23:41.782Z,17.22
2018-05-14T19:26:10.198Z,17.20
2018-05-14T19:28:44.727Z,17.23
2018-05-14T19:31:13.136Z,17.35
2018-05-14T19:33:47.410Z,16.91
2018-05-14T19:36:15.798Z,16.96
2018-05-14T19:38:44.198Z,17.25
2018-05-14T19:41:12.694Z,17.11
2018-05-14T19:43:41.114Z,17.32
2018-05-14T19:46:09.519Z,17.33
2018-05-14T19:48:38.066Z,17.06
2018-05-14T19:51:06.467Z,17.11
2018-05-14T19:53:34.879Z,17.38
2018-05-14T19:56:03.989Z,17.36
2018-05-14T19:58:32.411Z,17.21
2018-05-14T20:01:00.946Z,17.31
2018-05-14T20:03:29.789Z,17.11
2018-05-14T20:08:31.923Z,17.09
2018-05-14T20:11:00.346Z,16.92
2018-05-14T20:13:28.771Z,16.79
2018-05-14T20:15:57.685Z,16.78
2018-05-14T20:18:26.137Z,17.00
2018-05-14T20:20:54.685Z,16.68
2018-05-14T20:23:23.339Z,16.63
2018-05-14T20:25:51.755Z,16.54
2018-05-14T20:28:20.170Z,16.39
2018-05-14T20:30:48.966Z,16.42
2018-05-14T20:33:17.399Z,16.31
2018-05-14T20:35:45.804Z,16.43
2018-05-14T20:38:14.946Z,16.54
2018-05-14T20:40:43.364Z,16.44
2018-05-14T20:43:11.804Z,16.66
2018-05-14T20:45:40.685Z,16.70
2018-05-14T20:48:09.089Z,16.43
2018-05-14T20:50:37.548Z,16.23
2018-05-14T20:53:06.436Z,16.07
2018-05-14T20:55:34.831Z,15.98
2018-05-14T20:58:03.281Z,16.19
2018-05-14T21:00:32.084Z,15.84
2018-05-14T21:03:00.519Z,15.80
2018-05-14T21:05:28.957Z,15.85
2018-05-14T21:07:57.848Z,15.76
2018-05-14T21:10:26.256Z,15.84
2018-05-14T21:12:54.971Z,16.12
2018-05-14T21:15:23.681Z,16.20
2018-05-14T21:17:52.071Z,16.11
2018-05-14T21:20:20.459Z,15.89
2018-05-14T21:22:49.229Z,15.98
2018-05-14T21:25:17.659Z,15.68
2018-05-14T21:27:46.074Z,15.53
2018-05-14T21:30:14.699Z,15.49
2018-05-14T21:32:43.134Z,15.44
2018-05-14T21:35:11.540Z,15.78
2018-05-14T21:37:40.078Z,15.73
2018-05-14T21:40:08.459Z,15.72
2018-05-14T21:42:36.902Z,15.78
2018-05-14T21:45:05.552Z,15.40
2018-05-14T21:47:33.981Z,15.13
2018-05-14T21:50:02.427Z,15.29
2018-05-14T21:52:30.951Z,15.39
2018-05-14T21:54:59.379Z,15.52
2018-05-14T21:57:27.774Z,15.51
2018-05-14T21:59:56.200Z,15.61
2018-05-14T22:02:24.631Z,15.58
2018-05-14T22:04:53.037Z,15.46
2018-05-14T22:07:21.726Z,15.27
2018-05-14T22:09:50.161Z,15.20
2018-05-14T22:12:18.658Z,15.46
2018-05-14T22:14:47.480Z,15.43
2018-05-14T22:17:15.870Z,15.20
2018-05-14T22:19:44.363Z,15.15
2018-05-14T22:22:12.746Z,15.14
2018-05-14T22:24:41.164Z,15.31
2018-05-14T22:27:09.620Z,15.28
2018-05-14T22:29:38.106Z,15.37
2018-05-14T22:32:06.516Z,15.34
2018-05-14T22:34:34.925Z,15.30
2018-05-14T22:37:03.684Z,15.45
2018-05-14T22:39:32.102Z,15.55
2018-05-14T22:42:00.545Z,15.35
2018-05-14T22:44:29.354Z,15.09
2018-05-14T22:46:57.758Z,15.33
2018-05-14T22:49:26.166Z,15.39
2018-05-14T22:51:55.013Z,15.24
2018-05-14T22:54:35.298Z,15.33
2018-05-14T22:57:04.120Z,15.30
2018-05-14T22:59:32.547Z,15.58
2018-05-14T23:02:00.971Z,15.60
2018-05-14T23:04:29.424Z,15.66
2018-05-14T23:06:57.857Z,15.64
2018-05-14T23:09:26.270Z,15.42
2018-05-14T23:11:54.953Z,15.33
2018-05-14T23:14:23.349Z,15.20
2018-05-14T23:16:51.760Z,15.17
2018-05-14T23:19:20.600Z,15.45
2018-05-14T23:21:49.004Z,15.61
2018-05-14T23:24:17.421Z,15.61
2018-05-14T23:26:46.039Z,15.43
2018-05-14T23:29:14.442Z,15.54
2018-05-14T23:31:42.849Z,15.44
2018-05-14T23:34:11.796Z,15.44
2018-05-14T23:36:40.207Z,15.47
2018-05-14T23:39:08.634Z,15.43
2018-05-14T23:41:37.351Z,15.34
2018-05-14T23:44:05.764Z,15.49
2018-05-14T23:46:34.211Z,15.38
2018-05-14T23:49:02.809Z,15.16
2018-05-14T23:51:31.203Z,15.32
2018-05-14T23:53:59.619Z,15.32
2018-05-14T23:56:28.379Z,15.49
2018-05-14T23:58:56.778Z,15.57
